createdAt,value
2016-10-26T00:00:34.982Z,36.16
2016-10-26T00:01:34.267Z,35.78
2016-10-26T00:02:35.635Z,35.58
2016-10-26T00:03:35.103Z,35.78
2016-10-26T00:04:34.599Z,36.16
2016-10-26T00:05:35.383Z,35.58
2016-10-26T00:06:35.477Z,35.68
2016-10-26T00:07:34.668Z,36.16
2016-10-26T00:08:35.425Z,36.26
2016-10-26T00:09:35.350Z,35.58
2016-10-26T00:10:34.657Z,35.68
2016-10-26T00:11:35.628Z,36.16
2016-10-26T00:12:35.159Z,35.68
2016-10-26T00:13:34.828Z,36.26
2016-10-26T00:14:35.753Z,35.68
2016-10-26T00:15:35.846Z,35.68
2016-10-26T00:16:34.642Z,35.68
2016-10-26T00:17:35.875Z,35.68
2016-10-26T00:18:35.508Z,36.16
2016-10-26T00:19:35.074Z,36.16
2016-10-26T00:20:34.710Z,36.16
2016-10-26T00:21:35.504Z,36.07
2016-10-26T00:22:35.197Z,35.58
2016-10-26T00:23:34.730Z,36.16
2016-10-26T00:24:35.504Z,36.26
2016-10-26T00:25:35.012Z,36.16
2016-10-26T00:26:34.802Z,35.88
2016-10-26T00:27:35.599Z,36.07
2016-10-26T00:28:35.496Z,35.78
2016-10-26T00:29:34.774Z,35.58
2016-10-26T00:30:35.723Z,35.78
2016-10-26T00:31:35.252Z,35.68
2016-10-26T00:32:34.575Z,36.16
2016-10-26T00:33:34.489Z,36.07
2016-10-26T00:34:35.740Z,35.78
2016-10-26T00:35:35.100Z,35.58
2016-10-26T00:36:35.968Z,35.97
2016-10-26T00:37:35.548Z,35.97
2016-10-26T00:38:34.857Z,35.68
2016-10-26T00:39:34.847Z,35.97
2016-10-26T00:40:35.676Z,35.78
2016-10-26T00:41:34.980Z,36.16
2016-10-26T00:42:34.866Z,35.68
2016-10-26T00:43:35.622Z,35.68
2016-10-26T00:44:35.103Z,35.68
2016-10-26T00:45:34.622Z,35.68
2016-10-26T00:46:35.697Z,35.68
2016-10-26T00:47:35.227Z,36.07
2016-10-26T00:48:34.905Z,35.88
2016-10-26T00:49:35.818Z,36.26
2016-10-26T00:50:35.712Z,35.58
2016-10-26T00:51:34.970Z,35.68
2016-10-26T00:52:34.622Z,35.97
2016-10-26T00:53:35.523Z,36.26
2016-10-26T00:54:35.144Z,36.16
2016-10-26T00:55:36.064Z,36.16
2016-10-26T00:56:35.907Z,36.07
2016-10-26T00:57:35.302Z,35.58
2016-10-26T00:58:36.071Z,35.58
2016-10-26T00:59:36.082Z,36.07
2016-10-26T01:00:35.389Z,36.16
2016-10-26T01:01:35.002Z,35.88
2016-10-26T01:02:36.056Z,35.49
2016-10-26T01:03:35.200Z,35.68
2016-10-26T01:04:35.020Z,36.16
2016-10-26T01:05:36.072Z,36.26
2016-10-26T01:06:35.373Z,36.26
2016-10-26T01:07:35.042Z,36.16
2016-10-26T01:08:35.913Z,35.78
2016-10-26T01:09:35.809Z,35.78
2016-10-26T01:10:34.755Z,36.16
2016-10-26T01:11:36.038Z,35.68
2016-10-26T01:12:35.568Z,36.16
2016-10-26T01:13:35.189Z,36.16
2016-10-26T01:14:34.777Z,36.16
2016-10-26T01:15:35.695Z,36.07
2016-10-26T01:16:35.314Z,35.68
2016-10-26T01:17:36.166Z,35.88
2016-10-26T01:18:35.812Z,35.58
2016-10-26T01:19:35.437Z,36.26
2016-10-26T01:20:34.818Z,35.78
2016-10-26T01:21:36.299Z,36.16
2016-10-26T01:22:35.294Z,36.07
2016-10-26T01:23:35.151Z,35.58
2016-10-26T01:24:35.897Z,35.78
2016-10-26T01:25:35.416Z,35.68
2016-10-26T01:26:35.172Z,35.58
2016-10-26T01:27:36.009Z,35.68
2016-10-26T01:28:35.850Z,35.78
2016-10-26T01:29:34.882Z,36.07
2016-10-26T01:30:36.131Z,35.68
2016-10-26T01:31:35.978Z,35.78
2016-10-26T01:32:35.283Z,35.68
2016-10-26T01:33:36.253Z,36.07
2016-10-26T01:34:35.783Z,36.07
2016-10-26T01:35:35.407Z,36.07
2016-10-26T01:36:36.378Z,35.88
2016-10-26T01:37:36.271Z,35.78
2016-10-26T01:38:35.630Z,35.68
2016-10-26T01:39:35.270Z,36.07
2016-10-26T01:40:36.392Z,36.05
2016-10-26T01:41:35.699Z,36.07
2016-10-26T01:42:35.027Z,36.16
2016-10-26T01:43:36.103Z,35.78
2016-10-26T01:44:35.876Z,36.16
2016-10-26T01:45:35.308Z,36.16
2016-10-26T01:46:36.054Z,36.26
2016-10-26T01:47:35.946Z,36.16
2016-10-26T01:48:35.330Z,36.36
2016-10-26T01:49:35.024Z,36.26
2016-10-26T01:50:35.759Z,36.16
2016-10-26T01:51:35.066Z,36.36
2016-10-26T01:52:35.095Z,36.36
2016-10-26T01:53:36.243Z,36.16
2016-10-26T01:54:35.189Z,35.78
2016-10-26T01:55:35.063Z,36.16
2016-10-26T01:56:36.055Z,36.26
2016-10-26T01:57:35.361Z,36.16
2016-10-26T01:58:35.401Z,36.36
2016-10-26T01:59:36.437Z,36.26
2016-10-26T02:00:35.795Z,35.68
2016-10-26T02:01:35.159Z,36.26
2016-10-26T02:02:36.168Z,36.36
2016-10-26T02:03:35.970Z,36.34
2016-10-26T02:04:36.755Z,36.16
2016-10-26T02:05:36.476Z,36.36
2016-10-26T02:06:36.042Z,36.16
2016-10-26T02:07:35.513Z,36.16
2016-10-26T02:08:36.321Z,36.16
2016-10-26T02:09:36.213Z,35.68
2016-10-26T02:10:35.532Z,36.16
2016-10-26T02:11:35.177Z,35.66
2016-10-26T02:12:36.286Z,36.16
2016-10-26T02:13:35.595Z,36.05
2016-10-26T02:14:36.565Z,36.15
2016-10-26T02:15:36.093Z,36.07
2016-10-26T02:16:35.410Z,35.78
2016-10-26T02:17:36.572Z,35.86
2016-10-26T02:18:36.529Z,36.15
2016-10-26T02:19:35.838Z,35.66
2016-10-26T02:20:35.238Z,35.66
2016-10-26T02:21:36.708Z,35.76
2016-10-26T02:22:36.012Z,35.76
2016-10-26T02:23:35.265Z,35.76
2016-10-26T02:24:36.642Z,36.15
2016-10-26T02:25:36.134Z,36.16
2016-10-26T02:26:35.594Z,35.76
2016-10-26T02:27:36.415Z,35.86
2016-10-26T02:28:35.993Z,36.05
2016-10-26T02:29:35.662Z,35.86
2016-10-26T02:30:36.536Z,35.95
2016-10-26T02:31:36.380Z,35.86
2016-10-26T02:32:35.376Z,36.05
2016-10-26T02:33:36.661Z,36.07
2016-10-26T02:34:36.189Z,35.95
2016-10-26T02:35:35.811Z,35.95
2016-10-26T02:36:35.351Z,36.15
2016-10-26T02:37:36.314Z,36.05
2016-10-26T02:38:35.675Z,35.95
2016-10-26T02:39:35.371Z,36.07
2016-10-26T02:40:36.801Z,35.86
2016-10-26T02:41:35.746Z,36.05
2016-10-26T02:42:35.705Z,35.76
2016-10-26T02:43:36.450Z,35.95
2016-10-26T02:44:36.232Z,35.95
2016-10-26T02:45:35.465Z,36.24
2016-10-26T02:46:36.790Z,35.95
2016-10-26T02:47:36.040Z,35.86
2016-10-26T02:48:35.749Z,35.86
2016-10-26T02:49:35.443Z,35.95
2016-10-26T02:50:36.479Z,35.95
2016-10-26T02:51:35.787Z,36.05
2016-10-26T02:52:35.461Z,35.95
2016-10-26T02:53:36.598Z,35.66
2016-10-26T02:54:35.907Z,36.15
2016-10-26T02:55:35.485Z,35.86
2016-10-26T02:56:36.408Z,36.05
2016-10-26T02:57:35.766Z,35.95
2016-10-26T02:58:37.000Z,35.95
2016-10-26T02:59:36.844Z,35.95
2016-10-26T03:00:36.201Z,36.15
2016-10-26T03:01:35.843Z,36.05
2016-10-26T03:02:36.999Z,36.05
2016-10-26T03:03:36.013Z,36.05
2016-10-26T03:04:35.599Z,35.86
2016-10-26T03:05:36.928Z,35.95
2016-10-26T03:06:36.449Z,35.86
2016-10-26T03:07:35.933Z,36.15
2016-10-26T03:08:36.676Z,35.95
2016-10-26T03:09:36.622Z,36.05
2016-10-26T03:10:35.902Z,35.95
2016-10-26T03:11:36.849Z,36.15
2016-10-26T03:12:36.384Z,36.05
2016-10-26T03:13:36.004Z,35.86
2016-10-26T03:14:36.972Z,36.05
2016-10-26T03:15:36.864Z,35.95
2016-10-26T03:16:36.124Z,36.15
2016-10-26T03:17:35.638Z,35.86
2016-10-26T03:18:36.988Z,35.86
2016-10-26T03:19:36.247Z,36.05
2016-10-26T03:20:35.973Z,36.15
2016-10-26T03:21:36.796Z,35.95
2016-10-26T03:22:36.106Z,35.86
2016-10-26T03:23:35.929Z,35.95
2016-10-26T03:24:36.821Z,36.05
2016-10-26T03:25:36.591Z,35.95
2016-10-26T03:26:36.016Z,35.66
2016-10-26T03:27:36.871Z,35.86
2016-10-26T03:28:36.664Z,35.86
2016-10-26T03:29:36.048Z,35.86
2016-10-26T03:30:35.728Z,35.76
2016-10-26T03:31:36.473Z,36.15
2016-10-26T03:32:36.097Z,36.15
2016-10-26T03:33:37.071Z,36.05
2016-10-26T03:34:36.597Z,35.95
2016-10-26T03:35:35.905Z,35.66
2016-10-26T03:36:37.135Z,35.95
2016-10-26T03:37:36.718Z,36.05
2016-10-26T03:38:36.342Z,36.05
2016-10-26T03:39:36.105Z,35.95
2016-10-26T03:40:37.156Z,35.95
2016-10-26T03:41:36.153Z,35.95
2016-10-26T03:42:36.127Z,35.86
2016-10-26T03:43:37.120Z,36.05
2016-10-26T03:44:36.323Z,35.86
2016-10-26T03:45:35.836Z,35.76
2016-10-26T03:46:37.198Z,36.05
2016-10-26T03:47:36.761Z,36.05
2016-10-26T03:48:36.217Z,36.05
2016-10-26T03:49:36.920Z,36.05
2016-10-26T03:50:36.567Z,36.15
2016-10-26T03:51:36.193Z,35.95
2016-10-26T03:52:37.160Z,36.34
2016-10-26T03:53:36.724Z,35.66
2016-10-26T03:54:36.004Z,36.05
2016-10-26T03:55:37.283Z,35.76
2016-10-26T03:56:37.176Z,35.66
2016-10-26T03:57:36.173Z,35.57
2016-10-26T03:58:37.408Z,35.57
2016-10-26T03:59:37.300Z,35.57
2016-10-26T04:00:36.606Z,35.66
2016-10-26T04:01:35.942Z,35.66
2016-10-26T04:02:37.159Z,36.24
2016-10-26T04:03:36.732Z,36.15
2016-10-26T04:04:35.964Z,35.76
2016-10-26T04:05:37.330Z,36.24
2016-10-26T04:06:36.539Z,36.24
2016-10-26T04:07:35.987Z,36.24
2016-10-26T04:08:37.097Z,36.34
2016-10-26T04:09:36.978Z,35.76
2016-10-26T04:10:36.057Z,35.66
2016-10-26T04:11:37.255Z,36.05
2016-10-26T04:12:37.105Z,36.24
2016-10-26T04:13:36.407Z,36.34
2016-10-26T04:14:37.378Z,36.34
2016-10-26T04:15:36.909Z,36.24
2016-10-26T04:16:36.582Z,36.34
2016-10-26T04:17:37.500Z,36.34
2016-10-26T04:18:37.594Z,36.24
2016-10-26T04:19:36.654Z,36.24
2016-10-26T04:20:36.390Z,35.76
2016-10-26T04:21:37.518Z,36.24
2016-10-26T04:22:36.778Z,36.24
2016-10-26T04:23:36.097Z,36.34
2016-10-26T04:24:37.228Z,36.34
2016-10-26T04:25:36.998Z,36.34
2016-10-26T04:26:36.441Z,36.15
2016-10-26T04:27:37.177Z,36.15
2016-10-26T04:28:36.758Z,36.34
2016-10-26T04:29:36.138Z,35.76
2016-10-26T04:30:36.147Z,36.24
2016-10-26T04:31:36.886Z,36.05
2016-10-26T04:32:36.503Z,36.15
2016-10-26T04:33:37.473Z,36.34
2016-10-26T04:34:37.005Z,36.15
2016-10-26T04:35:36.690Z,35.76
2016-10-26T04:36:37.595Z,36.34
2016-10-26T04:37:37.491Z,36.44
2016-10-26T04:38:36.848Z,35.57
2016-10-26T04:39:36.525Z,36.05
2016-10-26T04:40:37.613Z,36.05
2016-10-26T04:41:36.871Z,36.15
2016-10-26T04:42:36.280Z,35.66
2016-10-26T04:43:37.286Z,36.05
2016-10-26T04:44:37.044Z,36.34
2016-10-26T04:45:36.564Z,36.15
2016-10-26T04:46:37.605Z,36.15
2016-10-26T04:47:36.852Z,35.76
2016-10-26T04:48:36.359Z,35.76
2016-10-26T04:49:37.444Z,36.15
2016-10-26T04:50:36.975Z,35.86
2016-10-26T04:51:36.292Z,35.57
2016-10-26T04:52:36.300Z,35.76
2016-10-26T04:53:37.101Z,35.66
2016-10-26T04:54:36.722Z,36.15
2016-10-26T04:55:36.369Z,36.15
2016-10-26T04:56:37.536Z,36.15
2016-10-26T04:57:36.532Z,35.66
2016-10-26T04:58:37.758Z,36.15
2016-10-26T04:59:37.444Z,35.66
2016-10-26T05:00:36.705Z,35.76
2016-10-26T05:01:36.676Z,36.15
2016-10-26T05:02:37.837Z,36.24
2016-10-26T05:03:37.189Z,36.24
2016-10-26T05:04:36.699Z,35.57
2016-10-26T05:05:37.819Z,36.15
2016-10-26T05:06:37.263Z,35.66
2016-10-26T05:07:36.508Z,36.15
2016-10-26T05:08:37.541Z,36.05
2016-10-26T05:09:37.436Z,35.76
2016-10-26T05:10:36.740Z,36.15
2016-10-26T05:11:36.434Z,36.15
2016-10-26T05:12:37.195Z,36.15
2016-10-26T05:13:36.554Z,36.24
2016-10-26T05:14:37.785Z,35.86
2016-10-26T05:15:37.631Z,35.66
2016-10-26T05:16:36.627Z,35.66
2016-10-26T05:17:37.911Z,36.15
2016-10-26T05:18:37.492Z,36.05
2016-10-26T05:19:36.802Z,36.05
2016-10-26T05:20:36.808Z,35.86
2016-10-26T05:21:37.926Z,35.95
2016-10-26T05:22:36.939Z,36.05
2016-10-26T05:23:36.569Z,35.76
2016-10-26T05:24:37.888Z,36.05
2016-10-26T05:25:37.603Z,35.86
2016-10-26T05:26:38.160Z,36.15
2016-10-26T05:27:37.636Z,35.66
2016-10-26T05:28:37.169Z,36.05
2016-10-26T05:29:36.558Z,35.86
2016-10-26T05:30:37.760Z,36.05
2016-10-26T05:31:37.293Z,36.05
2016-10-26T05:32:36.698Z,36.24
2016-10-26T05:33:37.932Z,36.15
2016-10-26T05:34:37.415Z,35.57
2016-10-26T05:35:37.085Z,36.05
2016-10-26T05:36:36.608Z,36.05
2016-10-26T05:37:37.900Z,35.95
2016-10-26T05:38:37.208Z,36.05
2016-10-26T05:39:36.942Z,35.57
2016-10-26T05:40:38.020Z,35.47
2016-10-26T05:41:37.331Z,35.76
2016-10-26T05:42:36.646Z,36.15
2016-10-26T05:43:37.710Z,36.15
2016-10-26T05:44:37.139Z,36.15
2016-10-26T05:45:36.983Z,35.76
2016-10-26T05:46:38.050Z,36.34
2016-10-26T05:47:37.624Z,36.24
2016-10-26T05:48:37.004Z,35.66
2016-10-26T05:49:37.854Z,36.24
2016-10-26T05:50:37.698Z,36.15
2016-10-26T05:51:36.716Z,36.24
2016-10-26T05:52:38.026Z,36.15
2016-10-26T05:53:37.819Z,36.24
2016-10-26T05:54:37.131Z,36.24
2016-10-26T05:55:36.740Z,36.24
2016-10-26T05:56:38.095Z,36.15
2016-10-26T05:57:36.939Z,36.24
2016-10-26T05:58:36.811Z,36.34
2016-10-26T05:59:38.068Z,36.24
2016-10-26T06:00:37.112Z,36.34
2016-10-26T06:01:36.784Z,36.24
2016-10-26T06:02:38.239Z,36.34
2016-10-26T06:03:37.549Z,36.34
2016-10-26T06:04:37.115Z,36.34
2016-10-26T06:05:37.871Z,36.34
2016-10-26T06:06:37.670Z,36.24
2016-10-26T06:07:37.189Z,36.15
2016-10-26T06:08:37.949Z,36.15
2016-10-26T06:09:37.483Z,36.15
2016-10-26T06:10:37.157Z,35.57
2016-10-26T06:11:38.073Z,36.34
2016-10-26T06:12:37.966Z,36.24
2016-10-26T06:13:37.014Z,36.24
2016-10-26T06:14:38.195Z,36.15
2016-10-26T06:15:37.727Z,36.34
2016-10-26T06:16:37.035Z,36.15
2016-10-26T06:17:38.319Z,35.66
2016-10-26T06:18:37.901Z,35.66
2016-10-26T06:19:37.206Z,35.76
2016-10-26T06:20:36.914Z,36.24
2016-10-26T06:21:38.023Z,35.66
2016-10-26T06:22:37.693Z,35.86
2016-10-26T06:23:37.252Z,35.76
2016-10-26T06:24:38.306Z,35.57
2016-10-26T06:25:37.456Z,35.76
2016-10-26T06:26:37.271Z,35.66
2016-10-26T06:27:38.053Z,36.15
2016-10-26T06:28:37.888Z,36.05
2016-10-26T06:29:37.341Z,36.15
2016-10-26T06:30:38.169Z,36.15
2016-10-26T06:31:38.013Z,36.05
2016-10-26T06:32:37.319Z,36.15
2016-10-26T06:33:37.009Z,36.15
2016-10-26T06:34:37.822Z,36.15
2016-10-26T06:35:37.130Z,36.24
2016-10-26T06:36:37.024Z,36.15
2016-10-26T06:37:38.244Z,36.15
2016-10-26T06:38:37.617Z,36.15
2016-10-26T06:39:37.047Z,36.34
2016-10-26T06:40:38.379Z,35.66
2016-10-26T06:41:37.737Z,35.86
2016-10-26T06:42:37.380Z,35.57
2016-10-26T06:43:38.173Z,35.57
2016-10-26T06:44:37.875Z,35.76
2016-10-26T06:45:37.090Z,36.15
2016-10-26T06:46:38.147Z,36.05
2016-10-26T06:47:38.034Z,36.15
2016-10-26T06:48:37.107Z,36.15
2016-10-26T06:49:38.179Z,35.95
2016-10-26T06:50:37.850Z,35.86
2016-10-26T06:51:39.108Z,35.76
2016-10-26T06:52:38.385Z,35.57
2016-10-26T06:53:37.914Z,35.66
2016-10-26T06:54:37.537Z,35.57
2016-10-26T06:55:38.558Z,36.05
2016-10-26T06:56:38.404Z,36.15
2016-10-26T06:57:37.672Z,35.86
2016-10-26T06:58:53.059Z,36.05
2016-10-26T06:59:38.532Z,35.66
2016-10-26T07:00:37.476Z,36.05
2016-10-26T07:01:37.510Z,35.57
2016-10-26T07:02:38.647Z,35.57
2016-10-26T07:03:37.595Z,35.76
2016-10-26T07:04:37.533Z,35.66
2016-10-26T07:05:38.669Z,35.57
2016-10-26T07:06:37.768Z,36.24
2016-10-26T07:07:37.551Z,36.24
2016-10-26T07:08:38.296Z,36.34
2016-10-26T07:09:38.202Z,35.66
2016-10-26T07:10:37.575Z,36.34
2016-10-26T07:11:38.480Z,36.34
2016-10-26T07:12:38.010Z,36.05
2016-10-26T07:13:37.321Z,36.34
2016-10-26T07:14:38.652Z,36.34
2016-10-26T07:15:38.135Z,36.15
2016-10-26T07:16:37.441Z,35.47
2016-10-26T07:17:38.672Z,36.15
2016-10-26T07:18:38.570Z,35.57
2016-10-26T07:19:37.877Z,36.15
2016-10-26T07:20:37.641Z,36.15
2016-10-26T07:21:38.465Z,36.15
2016-10-26T07:22:37.741Z,36.15
2016-10-26T07:23:37.351Z,36.15
2016-10-26T07:24:38.404Z,36.15
2016-10-26T07:25:37.862Z,35.47
2016-10-26T07:26:37.371Z,36.05
2016-10-26T07:27:38.738Z,35.18
2016-10-26T07:28:37.983Z,35.1
2016-10-26T07:29:37.706Z,35
2016-10-26T07:30:38.576Z,34.05
2016-10-26T07:31:38.104Z,33.86
2016-10-26T07:32:37.418Z,33.97
2016-10-26T07:33:37.420Z,33.29
2016-10-26T07:34:38.545Z,32.71
2016-10-26T07:35:37.538Z,32.44
2016-10-26T07:36:38.820Z,32.15
2016-10-26T07:37:38.357Z,31.78
2016-10-26T07:38:37.973Z,31.49
2016-10-26T07:39:38.827Z,31.41
2016-10-26T07:40:38.474Z,31.02
2016-10-26T07:41:38.160Z,30.44
2016-10-26T07:42:37.791Z,30.84
2016-10-26T07:43:38.958Z,30.26
2016-10-26T07:44:38.266Z,30.26
2016-10-26T07:45:37.916Z,30.55
2016-10-26T07:46:38.986Z,30.27
2016-10-26T07:47:38.388Z,30.08
2016-10-26T07:48:37.833Z,29.6
2016-10-26T07:49:38.669Z,29.61
2016-10-26T07:50:38.564Z,29.61
2016-10-26T07:51:37.857Z,29.12
2016-10-26T07:52:38.792Z,29.22
2016-10-26T07:53:38.636Z,29.41
2016-10-26T07:54:37.945Z,29.32
2016-10-26T07:55:38.926Z,29.22
2016-10-26T07:56:38.446Z,29.02
2016-10-26T07:57:38.116Z,29.02
2016-10-26T07:58:37.594Z,28.94
2016-10-26T07:59:38.931Z,28.93
2016-10-26T08:00:37.926Z,29.04
2016-10-26T08:01:37.664Z,28.94
2016-10-26T08:02:39.052Z,28.75
2016-10-26T08:03:38.312Z,28.85
2016-10-26T08:04:37.632Z,28.85
2016-10-26T08:05:38.765Z,28.85
2016-10-26T08:06:38.487Z,28.94
2016-10-26T08:07:37.970Z,28.83
2016-10-26T08:08:38.762Z,28.85
2016-10-26T08:09:38.657Z,28.85
2016-10-26T08:10:37.679Z,28.85
2016-10-26T08:11:38.887Z,28.85
2016-10-26T08:12:38.778Z,28.85
2016-10-26T08:13:37.724Z,28.94
2016-10-26T08:14:37.706Z,28.85
2016-10-26T08:15:38.854Z,28.75
2016-10-26T08:16:38.161Z,28.65
2016-10-26T08:17:39.130Z,28.65
2016-10-26T08:18:38.975Z,28.45
2016-10-26T08:19:38.334Z,28.55
2016-10-26T08:20:38.066Z,28.45
2016-10-26T08:21:39.147Z,28.45
2016-10-26T08:22:38.146Z,28.36
2016-10-26T08:23:38.085Z,28.55
2016-10-26T08:24:38.880Z,28.85
2016-10-26T08:25:38.580Z,28.65
2016-10-26T08:26:37.797Z,28.55
2016-10-26T08:27:39.228Z,28.75
2016-10-26T08:29:38.183Z,28.94
2016-10-26T08:30:38.982Z,28.65
2016-10-26T08:31:38.510Z,28.85
2016-10-26T08:32:38.151Z,28.65
2016-10-26T08:33:39.102Z,28.75
2016-10-26T08:34:38.996Z,29.04
2016-10-26T08:35:38.255Z,29.04
2016-10-26T08:36:37.867Z,29.14
2016-10-26T08:37:38.808Z,28.94
2016-10-26T08:38:38.065Z,28.94
2016-10-26T08:39:39.305Z,29.04
2016-10-26T08:40:38.928Z,29.14
2016-10-26T08:41:38.552Z,29.14
2016-10-26T08:42:37.964Z,29.24
2016-10-26T08:43:39.083Z,28.94
2016-10-26T08:44:38.312Z,29.14
2016-10-26T08:45:37.935Z,29.24
2016-10-26T08:46:39.077Z,29.51
2016-10-26T08:47:38.495Z,29.61
2016-10-26T08:48:38.112Z,30.29
2016-10-26T08:49:39.427Z,30
2016-10-26T08:50:38.922Z,30.19
2016-10-26T08:51:38.337Z,29.9
2016-10-26T08:52:37.988Z,30
2016-10-26T08:53:38.737Z,29.61
2016-10-26T08:54:38.351Z,29.71
2016-10-26T08:55:38.013Z,29.41
2016-10-26T08:56:38.909Z,29.41
2016-10-26T08:57:38.177Z,29.51
2016-10-26T08:58:53.874Z,30.19
2016-10-26T08:59:39.351Z,30.29
2016-10-26T09:00:38.645Z,30.29
2016-10-26T09:01:38.071Z,30.09
2016-10-26T09:02:39.156Z,30.19
2016-10-26T09:03:38.769Z,29.9
2016-10-26T09:04:38.393Z,29.98
2016-10-26T09:05:39.139Z,30.09
2016-10-26T09:06:38.584Z,30.48
2016-10-26T09:07:38.102Z,30.09
2016-10-26T09:08:39.218Z,30.87
2016-10-26T09:09:38.703Z,29.8
2016-10-26T09:10:38.124Z,29.9
2016-10-26T09:11:39.323Z,30.19
2016-10-26T09:12:39.138Z,30.18
2016-10-26T09:13:38.148Z,30.29
2016-10-26T09:14:39.430Z,30.38
2016-10-26T09:15:38.963Z,30.09
2016-10-26T09:16:38.590Z,30.09
2016-10-26T09:17:39.552Z,30.29
2016-10-26T09:18:39.431Z,30.29
2016-10-26T09:19:38.688Z,30.09
2016-10-26T09:20:39.623Z,30
2016-10-26T09:21:39.557Z,30.19
2016-10-26T09:22:38.554Z,29.9
2016-10-26T09:23:38.276Z,30.09
2016-10-26T09:24:39.677Z,30.29
2016-10-26T09:25:39.073Z,30.29
2016-10-26T09:26:38.610Z,30.09
2016-10-26T09:27:39.408Z,29.9
2016-10-26T09:28:53.622Z,30.38
2016-10-26T09:29:38.278Z,30.29
2016-10-26T09:30:39.331Z,30.48
2016-10-26T09:31:39.243Z,30.68
2016-10-26T09:32:38.607Z,30.48
2016-10-26T09:33:39.402Z,30.77
2016-10-26T09:34:39.042Z,30.58
2016-10-26T09:35:38.465Z,30.87
2016-10-26T09:36:39.709Z,30.95
2016-10-26T09:37:39.636Z,30.77
2016-10-26T09:38:38.945Z,30.68
2016-10-26T09:39:39.716Z,30.87
2016-10-26T09:40:39.741Z,30.19
2016-10-26T09:41:38.711Z,30.38
2016-10-26T09:42:39.796Z,30.38
2016-10-26T09:43:39.778Z,30
2016-10-26T09:44:39.116Z,30.09
2016-10-26T09:45:38.437Z,30.19
2016-10-26T09:46:39.564Z,29.9
2016-10-26T09:47:39.202Z,30.19
2016-10-26T09:48:38.730Z,30
2016-10-26T09:49:39.481Z,30.48
2016-10-26T09:50:39.050Z,30.09
2016-10-26T09:51:38.753Z,30.58
2016-10-26T09:52:39.545Z,29.8
2016-10-26T09:53:39.496Z,30.58
2016-10-26T09:54:38.775Z,30.19
2016-10-26T09:55:38.464Z,30.19
2016-10-26T09:56:39.265Z,30.29
2016-10-26T09:57:38.931Z,30.58
2016-10-26T09:58:38.485Z,30.68
2016-10-26T09:59:39.758Z,30.68
2016-10-26T10:00:38.752Z,30.77
2016-10-26T10:01:38.563Z,30.48
2016-10-26T10:02:39.874Z,30.19
2016-10-26T10:03:39.176Z,30.48
2016-10-26T10:04:38.597Z,30.68
2016-10-26T10:05:40.046Z,30.58
2016-10-26T10:06:39.367Z,30.58
2016-10-26T10:07:38.644Z,30.68
2016-10-26T10:08:40.043Z,30.58
2016-10-26T10:09:39.107Z,30.58
2016-10-26T10:10:38.946Z,30.48
2016-10-26T10:11:39.771Z,30.59
2016-10-26T10:12:39.299Z,30.59
2016-10-26T10:13:38.961Z,30.3
2016-10-26T10:14:39.907Z,30.79
2016-10-26T10:15:39.718Z,30.79
2016-10-26T10:16:38.729Z,30.69
2016-10-26T10:17:38.632Z,30.87
2016-10-26T10:18:39.800Z,30.69
2016-10-26T10:19:39.147Z,30.5
2016-10-26T10:20:38.655Z,30.59
2016-10-26T10:21:40.015Z,30.59
2016-10-26T10:22:39.320Z,30.59
2016-10-26T10:23:38.677Z,30.79
2016-10-26T10:24:40.082Z,30.79
2016-10-26T10:25:39.146Z,30.88
2016-10-26T10:26:38.750Z,31.08
2016-10-26T10:27:40.074Z,30.98
2016-10-26T10:28:54.043Z,30.98
2016-10-26T10:29:38.724Z,30.98
2016-10-26T10:30:39.796Z,31.27
2016-10-26T10:31:39.326Z,30.88
2016-10-26T10:32:39.066Z,31.18
2016-10-26T10:33:39.863Z,31.27
2016-10-26T10:34:39.925Z,31.27
2016-10-26T10:35:39.086Z,31.18
2016-10-26T10:36:38.793Z,31.18
2016-10-26T10:37:39.892Z,31.47
2016-10-26T10:38:39.297Z,31.27
2016-10-26T10:39:40.159Z,31.27
2016-10-26T10:40:39.744Z,31.27
2016-10-26T10:41:39.004Z,31.47
2016-10-26T10:42:38.826Z,31.37
2016-10-26T10:43:39.813Z,31.47
2016-10-26T10:44:39.555Z,31.47
2016-10-26T10:45:39.155Z,31.45
2016-10-26T10:46:39.986Z,31.57
2016-10-26T10:47:39.625Z,31.47
2016-10-26T10:48:38.869Z,31.76
2016-10-26T10:49:40.356Z,31.37
2016-10-26T10:50:39.853Z,31.27
2016-10-26T10:51:39.241Z,31.47
2016-10-26T10:52:39.966Z,31.57
2016-10-26T10:53:39.858Z,31.37
2016-10-26T10:54:39.227Z,31.47
2016-10-26T10:55:38.926Z,31.57
2016-10-26T10:56:39.721Z,31.27
2016-10-26T10:57:39.063Z,31.47
2016-10-26T10:58:40.321Z,31.37
2016-10-26T10:59:39.791Z,31.66
2016-10-26T11:00:39.442Z,31.65
2016-10-26T11:01:40.409Z,31.55
2016-10-26T11:02:39.960Z,31.55
2016-10-26T11:03:39.401Z,31.74
2016-10-26T11:04:39.043Z,31.65
2016-10-26T11:05:40.449Z,31.74
2016-10-26T11:06:41.172Z,31.65
2016-10-26T11:07:39.052Z,31.45
2016-10-26T11:08:40.437Z,31.45
2016-10-26T11:09:39.545Z,31.66
2016-10-26T11:10:39.405Z,31.35
2016-10-26T11:11:40.428Z,31.57
2016-10-26T11:12:39.998Z,31.74
2016-10-26T11:13:39.111Z,31.35
2016-10-26T11:14:40.134Z,31.65
2016-10-26T11:15:40.075Z,31.35
2016-10-26T11:16:39.091Z,31.65
2016-10-26T11:17:39.094Z,31.84
2016-10-26T11:18:39.896Z,31.94
2016-10-26T11:19:39.502Z,31.94
2016-10-26T11:20:40.520Z,31.84
2016-10-26T11:21:40.378Z,31.65
2016-10-26T11:22:39.316Z,31.94
2016-10-26T11:23:40.520Z,31.84
2016-10-26T11:24:40.494Z,31.65
2016-10-26T11:25:39.802Z,31.84
2016-10-26T11:26:39.531Z,31.45
2016-10-26T11:27:40.306Z,31.84
2016-10-26T11:28:39.625Z,31.84
2016-10-26T11:29:39.504Z,31.84
2016-10-26T11:30:40.616Z,31.84
2016-10-26T11:31:40.046Z,31.65
2016-10-26T11:32:39.527Z,31.55
2016-10-26T11:33:40.274Z,31.55
2016-10-26T11:34:40.223Z,31.74
2016-10-26T11:35:39.258Z,31.45
2016-10-26T11:36:40.444Z,31.35
2016-10-26T11:37:39.977Z,31.65
2016-10-26T11:38:39.606Z,31.65
2016-10-26T11:39:40.597Z,31.94
2016-10-26T11:40:40.420Z,31.74
2016-10-26T11:41:39.822Z,31.94
2016-10-26T11:42:40.706Z,31.94
2016-10-26T11:43:40.648Z,32.04
2016-10-26T11:44:39.890Z,32.04
2016-10-26T11:45:39.315Z,32.13
2016-10-26T11:46:40.420Z,31.94
2016-10-26T11:47:40.072Z,32.04
2016-10-26T11:48:39.338Z,31.94
2016-10-26T11:49:40.501Z,31.74
2016-10-26T11:50:39.830Z,31.84
2016-10-26T11:51:39.771Z,31.74
2016-10-26T11:52:40.463Z,31.66
2016-10-26T11:53:40.265Z,31.57
2016-10-26T11:54:39.384Z,31.66
2016-10-26T11:55:40.540Z,31.57
2016-10-26T11:56:40.073Z,31.84
2016-10-26T11:57:39.457Z,31.94
2016-10-26T11:58:39.415Z,31.94
2016-10-26T11:59:40.245Z,32.13
2016-10-26T12:00:39.913Z,31.84
2016-10-26T12:01:39.437Z,32.04
2016-10-26T12:02:40.681Z,31.94
2016-10-26T12:03:40.022Z,31.94
2016-10-26T12:04:40.879Z,31.84
2016-10-26T12:05:40.819Z,31.74
2016-10-26T12:06:40.173Z,31.55
2016-10-26T12:07:39.554Z,31.37
2016-10-26T12:08:40.665Z,31.66
2016-10-26T12:09:40.283Z,31.57
2016-10-26T12:10:39.570Z,31.57
2016-10-26T12:11:40.616Z,31.66
2016-10-26T12:12:40.371Z,31.84
2016-10-26T12:13:39.905Z,32.04
2016-10-26T12:14:40.916Z,32.13
2016-10-26T12:15:40.213Z,32.13
2016-10-26T12:16:39.657Z,32.04
2016-10-26T12:17:40.775Z,32.13
2016-10-26T12:18:40.601Z,32.13
2016-10-26T12:19:39.914Z,31.94
2016-10-26T12:20:40.883Z,31.94
2016-10-26T12:21:40.508Z,32.13
2016-10-26T12:22:39.784Z,32.04
2016-10-26T12:23:41.112Z,32.13
2016-10-26T12:24:40.849Z,32.13
2016-10-26T12:25:39.933Z,32.13
2016-10-26T12:26:41.177Z,32.23
2016-10-26T12:27:40.714Z,32.04
2016-10-26T12:28:40.362Z,32.04
2016-10-26T12:29:39.658Z,32.13
2016-10-26T12:30:40.770Z,32.31
2016-10-26T12:31:40.249Z,32.42
2016-10-26T12:32:39.730Z,32.23
2016-10-26T12:33:40.749Z,32.42
2016-10-26T12:34:40.626Z,32.32
2016-10-26T12:35:40.012Z,32.32
2016-10-26T12:36:40.858Z,32.23
2016-10-26T12:37:40.704Z,32.12
2016-10-26T12:38:40.088Z,31.94
2016-10-26T12:39:40.988Z,31.74
2016-10-26T12:40:40.825Z,31.65
2016-10-26T12:41:40.227Z,31.57
2016-10-26T12:42:39.753Z,31.65
2016-10-26T12:43:40.701Z,31.66
2016-10-26T12:44:40.047Z,31.47
2016-10-26T12:45:39.829Z,31.47
2016-10-26T12:46:40.808Z,31.47
2016-10-26T12:47:40.428Z,31.57
2016-10-26T12:48:40.115Z,31.57
2016-10-26T12:49:40.928Z,31.57
2016-10-26T12:50:40.185Z,31.57
2016-10-26T12:51:40.137Z,31.55
2016-10-26T12:52:41.258Z,31.57
2016-10-26T12:53:40.707Z,31.84
2016-10-26T12:54:39.847Z,32.04